Time;durP1;ratioP1;P1;durP2;ratioP2;P2;SDS_P1;SDS_P2;PMS_P1;PMS_P2;Temp;Humidity;BMP_temperature;BMP_pressure;BME280_temperature;BME280_humidity;BME280_pressure;Samples;Min_cycle;Max_cycle;Signal;HPM_P1;HPM_P2
2022/07/06 00:01:22;;;;;;;1999.90;999.90;;;13.10;99.90;;;;;;5066953;28;20524;-76
2022/07/06 00:03:47;;;;;;;1999.90;999.90;;;13.00;99.90;;;;;;5069791;28;20043;-77
2022/07/06 00:06:13;;;;;;;1999.90;999.90;;;13.00;99.90;;;;;;5098818;28;20537;-77
2022/07/06 00:08:39;;;;;;;1999.90;999.90;;;13.00;99.90;;;;;;5056830;28;20043;-77
2022/07/06 00:11:05;;;;;;;1999.90;999.90;;;13.00;99.90;;;;;;5097661;28;20060;-77
2022/07/06 00:13:31;;;;;;;1999.90;999.90;;;12.90;99.90;;;;;;5102099;28;20089;-77
2022/07/06 00:15:57;;;;;;;1999.90;999.90;;;12.90;99.90;;;;;;5104618;28;20032;-77
2022/07/06 00:18:22;;;;;;;1999.90;999.90;;;12.90;99.90;;;;;;5070136;28;20062;-77
2022/07/06 00:20:48;;;;;;;1999.90;999.90;;;12.80;99.90;;;;;;5054042;28;20039;-77
2022/07/06 00:23:14;;;;;;;1999.90;999.90;;;12.80;99.90;;;;;;5085825;28;20043;-77
2022/07/06 00:25:39;;;;;;;1999.90;999.90;;;12.80;99.90;;;;;;5052962;28;20035;-76
2022/07/06 00:28:05;;;;;;;1999.90;999.90;;;12.80;99.90;;;;;;5059106;28;20044;-76
2022/07/06 00:30:31;;;;;;;1999.90;999.90;;;12.80;99.90;;;;;;5102327;28;20118;-77
2022/07/06 00:32:58;;;;;;;1999.90;999.90;;;12.80;99.90;;;;;;5066141;28;20082;-76
2022/07/06 00:35:24;;;;;;;1999.90;999.90;;;12.80;99.90;;;;;;5067421;28;20130;-76
2022/07/06 00:37:50;;;;;;;1999.90;999.90;;;12.80;99.90;;;;;;5056576;28;20066;-76
2022/07/06 00:40:16;;;;;;;1999.90;999.90;;;12.80;99.90;;;;;;5087302;28;20056;-77
2022/07/06 00:42:43;;;;;;;1999.90;999.90;;;12.80;99.90;;;;;;5062683;28;20052;-77
2022/07/06 00:45:11;;;;;;;1999.90;999.90;;;12.80;99.90;;;;;;5069360;28;20508;-77
2022/07/06 00:47:37;;;;;;;1999.90;999.90;;;12.80;99.90;;;;;;5103699;28;20128;-76
2022/07/06 00:50:13;;;;;;;1999.90;999.90;;;12.80;99.90;;;;;;5103024;28;20378;-77
2022/07/06 00:52:43;;;;;;;1999.90;999.90;;;12.80;99.90;;;;;;5056650;28;20036;-76
2022/07/06 00:55:10;;;;;;;1999.90;999.90;;;12.80;99.90;;;;;;5071005;28;20485;-77
2022/07/06 00:57:36;;;;;;;1999.90;999.90;;;12.80;99.90;;;;;;5086851;28;20039;-77
2022/07/06 01:00:08;;;;;;;1999.90;999.90;;;12.80;99.90;;;;;;5062271;28;20397;-76
2022/07/06 01:02:35;;;;;;;1999.90;999.90;;;12.70;99.90;;;;;;5068751;28;20032;-76
2022/07/06 01:05:03;;;;;;;1999.90;999.90;;;12.70;99.90;;;;;;5059899;28;20477;-76
2022/07/06 01:07:29;;;;;;;1999.90;999.90;;;12.70;99.90;;;;;;5073458;28;20409;-77
2022/07/06 01:09:55;;;;;;;1999.90;999.90;;;12.70;99.90;;;;;;5043888;28;20047;-76
2022/07/06 01:12:21;;;;;;;1999.90;999.90;;;12.70;99.90;;;;;;5070048;28;20056;-76
2022/07/06 01:14:48;;;;;;;1999.90;999.90;;;12.70;99.90;;;;;;5062689;28;20119;-76
2022/07/06 01:17:15;;;;;;;1999.90;999.90;;;12.70;99.90;;;;;;5070563;28;20527;-76
2022/07/06 01:19:40;;;;;;;1999.90;999.90;;;12.70;99.90;;;;;;5057151;28;20044;-76
2022/07/06 01:22:06;;;;;;;1999.90;999.90;;;12.70;99.90;;;;;;5107961;28;20452;-77
2022/07/06 01:24:34;;;;;;;1999.90;999.90;;;12.70;99.90;;;;;;5070840;28;20076;-77
2022/07/06 01:27:00;;;;;;;1999.90;999.90;;;12.70;99.90;;;;;;5074135;28;20063;-77
2022/07/06 01:29:26;;;;;;;1999.90;999.90;;;12.70;99.90;;;;;;5073040;28;20513;-76
2022/07/06 01:31:52;;;;;;;1999.90;999.90;;;12.70;99.90;;;;;;5072897;28;20036;-77
2022/07/06 01:34:18;;;;;;;1999.90;999.90;;;12.70;99.90;;;;;;5090105;28;20044;-77
2022/07/06 01:36:44;;;;;;;1999.90;999.90;;;12.70;99.90;;;;;;5058275;28;20032;-77
2022/07/06 01:39:10;;;;;;;1999.90;999.90;;;12.70;99.90;;;;;;5046088;28;20047;-77
2022/07/06 01:41:36;;;;;;;1999.90;999.90;;;12.80;99.90;;;;;;5067883;28;20558;-76
2022/07/06 01:44:02;;;;;;;1999.90;999.90;;;12.80;99.90;;;;;;5050236;28;20048;-76
2022/07/06 01:46:28;;;;;;;1999.90;999.90;;;12.80;99.90;;;;;;5047235;28;20051;-76
2022/07/06 01:48:54;;;;;;;1999.90;999.90;;;12.80;99.90;;;;;;5065219;28;20045;-77
2022/07/06 01:51:20;;;;;;;1999.90;999.90;;;12.90;99.90;;;;;;5033598;28;20061;-76
2022/07/06 01:53:46;;;;;;;1999.90;999.90;;;12.90;99.90;;;;;;5032539;28;20041;-76
2022/07/06 01:56:12;;;;;;;1999.90;999.90;;;12.90;99.90;;;;;;5056380;28;20917;-76
2022/07/06 01:58:39;;;;;;;1999.90;999.90;;;12.90;99.90;;;;;;5051359;28;20398;-76
2022/07/06 02:01:12;;;;;;;1999.90;999.90;;;12.90;99.90;;;;;;5047783;28;20045;-76
2022/07/06 02:03:38;;;;;;;1999.90;999.90;;;12.80;99.90;;;;;;5045864;28;20076;-77
2022/07/06 02:06:05;;;;;;;1999.90;999.90;;;12.90;99.90;;;;;;5042217;28;20079;-76
2022/07/06 02:08:31;;;;;;;1999.90;999.90;;;12.90;99.90;;;;;;5021059;28;20108;-77
2022/07/06 02:10:57;;;;;;;1999.90;999.90;;;12.90;99.90;;;;;;5044959;28;20047;-77
2022/07/06 02:13:22;;;;;;;1999.90;999.90;;;12.90;99.90;;;;;;5049445;28;20410;-76
2022/07/06 02:15:48;;;;;;;1999.90;999.90;;;12.90;99.90;;;;;;5033254;28;20139;-77
2022/07/06 02:18:13;;;;;;;1999.90;999.90;;;12.90;99.90;;;;;;5059529;28;20043;-77
2022/07/06 02:20:39;;;;;;;1999.90;999.90;;;12.90;99.90;;;;;;5033169;28;20499;-77
2022/07/06 02:23:05;;;;;;;1999.90;999.90;;;12.90;99.90;;;;;;5049632;28;20044;-77
2022/07/06 02:25:31;;;;;;;1999.90;999.90;;;12.90;99.90;;;;;;5062191;28;20090;-77
2022/07/06 02:27:57;;;;;;;1999.90;999.90;;;12.90;99.90;;;;;;5044921;28;20099;-77
2022/07/06 02:30:23;;;;;;;1999.90;999.90;;;12.90;99.90;;;;;;5032426;28;20124;-76
2022/07/06 02:32:48;;;;;;;1999.90;999.90;;;12.90;99.90;;;;;;5047448;28;20044;-76
2022/07/06 02:35:14;;;;;;;1999.90;999.90;;;12.90;99.90;;;;;;5040042;28;20069;-77
2022/07/06 02:37:40;;;;;;;1999.90;999.90;;;12.90;99.90;;;;;;5058079;28;20041;-76
2022/07/06 02:40:06;;;;;;;1999.90;999.90;;;12.90;99.90;;;;;;5036405;28;20484;-77
2022/07/06 02:42:32;;;;;;;1999.90;999.90;;;12.90;99.90;;;;;;5044079;28;20099;-76
2022/07/06 02:44:57;;;;;;;1999.90;999.90;;;12.90;99.90;;;;;;5068924;28;20052;-76
2022/07/06 02:47:23;;;;;;;1999.90;999.90;;;12.80;99.90;;;;;;5045896;28;20036;-77
2022/07/06 02:49:48;;;;;;;1999.90;999.90;;;12.80;99.90;;;;;;5068315;28;20106;-76
2022/07/06 02:52:14;;;;;;;1999.90;999.90;;;12.80;99.90;;;;;;5050841;28;20117;-76
2022/07/06 02:54:40;;;;;;;1999.90;999.90;;;12.70;99.90;;;;;;5051488;28;20099;-76
2022/07/06 02:57:05;;;;;;;1999.90;999.90;;;12.70;99.90;;;;;;5054875;28;20048;-76
2022/07/06 02:59:31;;;;;;;1999.90;999.90;;;12.70;99.90;;;;;;5069487;28;20527;-76
2022/07/06 03:01:56;;;;;;;1999.90;999.90;;;12.70;99.90;;;;;;5056168;28;20048;-77
2022/07/06 03:04:22;;;;;;;1999.90;999.90;;;12.60;99.90;;;;;;5068000;28;20047;-76
2022/07/06 03:06:47;;;;;;;1999.90;999.90;;;12.50;99.90;;;;;;5050888;28;20040;-77
2022/07/06 03:09:13;;;;;;;1999.90;999.90;;;12.50;99.90;;;;;;5051164;28;20480;-76
2022/07/06 03:11:39;;;;;;;1999.90;999.90;;;12.40;99.90;;;;;;5058373;28;20063;-76
2022/07/06 03:14:05;;;;;;;1999.90;999.90;;;12.40;99.90;;;;;;5068398;28;20071;-76
2022/07/06 03:16:31;;;;;;;1999.90;999.90;;;12.30;99.90;;;;;;5051430;28;20044;-76
2022/07/06 03:18:57;;;;;;;1999.90;999.90;;;12.20;99.90;;;;;;5066672;28;20044;-77
2022/07/06 03:21:24;;;;;;;1999.90;999.90;;;12.20;99.90;;;;;;5060150;28;20074;-77
2022/07/06 03:23:49;;;;;;;1999.90;999.90;;;12.10;99.90;;;;;;5068289;28;20049;-77
2022/07/06 03:26:15;;;;;;;1999.90;999.90;;;12.00;99.90;;;;;;5069639;28;20054;-76
2022/07/06 03:28:40;;;;;;;1999.90;999.90;;;11.90;99.90;;;;;;5045965;28;20049;-76
2022/07/06 03:31:06;;;;;;;1999.90;999.90;;;11.80;99.90;;;;;;5051442;28;20447;-76
2022/07/06 03:33:32;;;;;;;1999.90;999.90;;;11.80;99.90;;;;;;5066439;28;20048;-76
2022/07/06 03:35:57;;;;;;;1999.90;999.90;;;11.70;99.90;;;;;;5067737;28;20119;-77
2022/07/06 03:38:23;;;;;;;1999.90;999.90;;;11.70;99.90;;;;;;5054373;28;20044;-77
2022/07/06 03:40:49;;;;;;;1999.90;999.90;;;11.60;99.90;;;;;;5050876;28;20429;-76
2022/07/06 03:43:14;;;;;;;1999.90;999.90;;;11.60;99.90;;;;;;5060379;28;20044;-76
2022/07/06 03:45:40;;;;;;;1999.90;999.90;;;11.50;99.90;;;;;;5064914;28;20056;-76
2022/07/06 03:48:06;;;;;;;1999.90;999.90;;;11.50;99.90;;;;;;5066994;28;20040;-76
2022/07/06 03:50:31;;;;;;;1999.90;999.90;;;11.40;99.90;;;;;;5050549;28;20441;-76
2022/07/06 03:52:57;;;;;;;1999.90;999.90;;;11.40;99.90;;;;;;5074006;28;20098;-77
2022/07/06 03:55:23;;;;;;;1999.90;999.90;;;11.30;99.90;;;;;;5067417;28;20032;-76
2022/07/06 03:57:48;;;;;;;1999.90;999.90;;;11.30;99.90;;;;;;5051077;28;20056;-77
2022/07/06 04:00:14;;;;;;;1999.90;999.90;;;11.30;99.90;;;;;;5038699;28;20059;-77
2022/07/06 04:02:40;;;;;;;1999.90;999.90;;;11.30;99.90;;;;;;5064185;28;20040;-76
2022/07/06 04:05:06;;;;;;;1999.90;999.90;;;11.30;99.90;;;;;;5050654;28;20040;-77
2022/07/06 04:07:32;;;;;;;1999.90;999.90;;;11.30;99.90;;;;;;5068779;28;20422;-77
2022/07/06 04:09:58;;;;;;;1999.90;999.90;;;11.30;99.90;;;;;;5058799;28;20049;-76
2022/07/06 04:12:23;;;;;;;1999.90;999.90;;;11.30;99.90;;;;;;5048869;28;20143;-76
2022/07/06 04:14:49;;;;;;;1999.90;999.90;;;11.30;99.90;;;;;;5050983;28;20486;-77
2022/07/06 04:19:58;;;;;;;1999.90;999.90;;;11.40;99.90;;;;;;5067656;28;20040;-77
2022/07/06 04:22:24;;;;;;;1999.90;999.90;;;11.40;99.90;;;;;;5068409;28;20127;-77
2022/07/06 04:24:50;;;;;;;1999.90;999.90;;;11.50;99.90;;;;;;5065134;28;20133;-76
2022/07/06 04:27:15;;;;;;;1999.90;999.90;;;11.50;99.90;;;;;;5064256;28;21744;-77
2022/07/06 04:29:41;;;;;;;1999.90;999.90;;;11.60;99.90;;;;;;5065281;28;20045;-76
2022/07/06 04:32:07;;;;;;;1999.90;999.90;;;11.70;99.90;;;;;;5049640;28;20048;-76
2022/07/06 04:34:33;;;;;;;1999.90;999.90;;;11.70;99.90;;;;;;5048150;28;20037;-76
2022/07/06 04:36:59;;;;;;;1999.90;999.90;;;11.80;99.90;;;;;;5066542;28;20494;-76
2022/07/06 04:39:24;;;;;;;1999.90;999.90;;;12.00;99.90;;;;;;5068226;28;20151;-76
2022/07/06 04:41:50;;;;;;;1999.90;999.90;;;12.00;99.90;;;;;;5063101;28;20510;-77
2022/07/06 04:44:16;;;;;;;1999.90;999.90;;;12.10;99.90;;;;;;5055507;28;20056;-76
2022/07/06 04:46:41;;;;;;;1999.90;999.90;;;12.20;99.90;;;;;;5066495;28;20045;-76
2022/07/06 04:49:07;;;;;;;1999.90;999.90;;;12.30;99.90;;;;;;5049699;28;20076;-76
2022/07/06 04:51:33;;;;;;;1999.90;999.90;;;12.40;99.90;;;;;;5051246;28;20071;-76
2022/07/06 04:53:58;;;;;;;1999.90;999.90;;;12.50;99.90;;;;;;5073097;28;20036;-76
2022/07/06 04:56:24;;;;;;;1999.90;999.90;;;12.60;99.90;;;;;;5073261;28;20490;-76
2022/07/06 04:58:50;;;;;;;1999.90;999.90;;;12.60;99.90;;;;;;5053886;28;20033;-77
2022/07/06 05:01:16;;;;;;;1999.90;999.90;;;12.80;99.90;;;;;;5059605;28;20036;-76
2022/07/06 05:03:41;;;;;;;1999.90;999.90;;;12.80;99.90;;;;;;5055665;28;20383;-76
2022/07/06 05:06:07;;;;;;;1999.90;999.90;;;12.90;99.90;;;;;;5073687;28;20056;-76
2022/07/06 05:08:34;;;;;;;1999.90;999.90;;;13.00;99.90;;;;;;5055600;28;20123;-76
2022/07/06 05:11:00;;;;;;;1999.90;999.90;;;13.00;99.90;;;;;;5056031;28;20093;-76
2022/07/06 05:13:25;;;;;;;1999.90;999.90;;;13.10;99.90;;;;;;5073246;28;20047;-76
2022/07/06 05:15:51;;;;;;;1999.90;999.90;;;13.10;99.90;;;;;;5073229;28;20040;-76
2022/07/06 05:18:17;;;;;;;1999.90;999.90;;;13.20;99.90;;;;;;5072259;28;20108;-76
2022/07/06 05:20:42;;;;;;;1999.90;999.90;;;13.20;99.90;;;;;;5055622;28;20047;-76
2022/07/06 05:23:08;;;;;;;1999.90;999.90;;;13.20;99.90;;;;;;5056913;28;20047;-76
2022/07/06 05:25:35;;;;;;;1999.90;999.90;;;13.20;99.90;;;;;;5074038;28;20040;-76
2022/07/06 05:28:01;;;;;;;1999.90;999.90;;;13.20;99.90;;;;;;5070397;28;20048;-76
2022/07/06 05:30:26;;;;;;;1999.90;999.90;;;13.10;99.90;;;;;;5073502;28;20037;-76
2022/07/06 05:32:52;;;;;;;1999.90;999.90;;;13.10;99.90;;;;;;5063558;28;20048;-76
2022/07/06 05:35:18;;;;;;;1999.90;999.90;;;13.10;99.90;;;;;;5067490;28;20162;-76
2022/07/06 05:37:43;;;;;;;1999.90;999.90;;;13.20;99.90;;;;;;5059321;28;20036;-76
2022/07/06 05:40:10;;;;;;;1999.90;999.90;;;13.30;99.90;;;;;;5068835;28;20053;-77
2022/07/06 05:42:35;;;;;;;1999.90;999.90;;;13.40;99.90;;;;;;5057179;28;20052;-76
2022/07/06 05:45:03;;;;;;;1999.90;999.90;;;13.50;99.90;;;;;;5069013;28;20480;-76
2022/07/06 05:50:14;;;;;;;1999.90;999.90;;;13.80;99.90;;;;;;5077559;28;20082;-77
2022/07/06 05:52:54;;;;;;;1999.90;999.90;;;14.00;99.90;;;;;;5073798;28;20068;-76
2022/07/06 05:55:20;;;;;;;1999.90;999.90;;;14.10;99.90;;;;;;5053283;28;20049;-77
2022/07/06 05:57:45;;;;;;;1999.90;999.90;;;14.30;99.90;;;;;;5073265;28;20040;-76
2022/07/06 06:00:11;;;;;;;1999.90;999.90;;;14.40;99.90;;;;;;5056169;28;20063;-76
2022/07/06 06:02:39;;;;;;;1999.90;999.90;;;14.50;99.90;;;;;;5072492;28;20036;-76
2022/07/06 06:05:09;;;;;;;1999.90;999.90;;;14.60;99.90;;;;;;5068316;28;20072;-77
2022/07/06 06:07:37;;;;;;;1999.90;999.90;;;14.60;99.90;;;;;;5052764;28;20043;-76
2022/07/06 06:10:11;;;;;;;1999.90;999.90;;;14.60;99.90;;;;;;5046082;28;20036;-76
2022/07/06 06:12:38;;;;;;;1999.90;999.90;;;14.60;99.90;;;;;;5052809;28;20044;-76
2022/07/06 06:15:04;;;;;;;1999.90;999.90;;;14.60;99.90;;;;;;5078928;28;20048;-77
2022/07/06 06:17:30;;;;;;;1999.90;999.90;;;14.70;99.90;;;;;;5073099;28;20123;-77
2022/07/06 06:19:57;;;;;;;1999.90;999.90;;;14.80;99.90;;;;;;5069496;28;20145;-76
2022/07/06 06:22:23;;;;;;;1999.90;999.90;;;14.80;99.90;;;;;;5050774;28;20059;-77
2022/07/06 06:24:49;;;;;;;1999.90;999.90;;;14.90;99.90;;;;;;5052906;28;20040;-77
2022/07/06 06:27:14;;;;;;;1999.90;999.90;;;14.90;99.90;;;;;;5069778;28;20046;-77
2022/07/06 06:29:41;;;;;;;1999.90;999.90;;;15.00;99.90;;;;;;5052832;28;20040;-77
2022/07/06 06:32:07;;;;;;;1999.90;999.90;;;15.00;99.90;;;;;;5052944;28;20052;-77
2022/07/06 06:34:33;;;;;;;1999.90;999.90;;;15.10;99.90;;;;;;5080758;28;20052;-77
2022/07/06 06:36:58;;;;;;;1999.90;999.90;;;15.20;99.90;;;;;;5057867;28;20052;-77
2022/07/06 06:39:25;;;;;;;1999.90;999.90;;;15.30;99.90;;;;;;5052479;28;20048;-76
2022/07/06 06:41:50;;;;;;;1999.90;999.90;;;15.40;99.90;;;;;;5065940;28;20135;-77
2022/07/06 06:44:17;;;;;;;1999.90;999.90;;;15.60;99.90;;;;;;5061399;28;20171;-77
2022/07/06 06:46:43;;;;;;;1999.90;999.90;;;16.20;99.90;;;;;;5053162;28;20520;-77
2022/07/06 06:49:10;;;;;;;1999.90;999.90;;;16.60;99.90;;;;;;5070973;28;20036;-77
2022/07/06 06:51:37;;;;;;;1999.90;999.90;;;17.40;99.90;;;;;;5068801;28;20123;-77
2022/07/06 06:54:03;;;;;;;1999.90;999.90;;;18.30;99.90;;;;;;5068566;28;20044;-77
2022/07/06 06:56:28;;;;;;;1999.90;999.90;;;19.20;99.90;;;;;;5069219;28;20040;-77
2022/07/06 06:58:54;;;;;;;1999.90;999.90;;;19.80;99.90;;;;;;5066809;28;20117;-77
2022/07/06 07:01:20;;;;;;;1999.90;999.90;;;19.90;99.90;;;;;;5057622;28;20554;-76
2022/07/06 07:03:45;;;;;;;1999.90;999.90;;;19.30;99.90;;;;;;5068253;28;20519;-77
2022/07/06 07:06:11;;;;;;;1999.90;999.90;;;18.60;99.90;;;;;;5045300;28;20049;-78
2022/07/06 07:08:37;;;;;;;1999.90;999.90;;;18.40;99.90;;;;;;5068522;28;20040;-77
2022/07/06 07:11:02;;;;;;;1999.90;999.90;;;18.90;99.90;;;;;;5040905;28;20075;-77
2022/07/06 07:13:28;;;;;;;1999.90;999.90;;;19.60;99.90;;;;;;5051770;28;20094;-76
2022/07/06 07:15:54;;;;;;;1999.90;999.90;;;20.10;99.90;;;;;;5065490;28;20045;-78
2022/07/06 07:18:19;;;;;;;1999.90;999.90;;;20.40;99.90;;;;;;5068479;28;20040;-77
2022/07/06 07:20:45;;;;;;;1999.90;999.90;;;20.70;99.90;;;;;;5037409;28;20091;-77
2022/07/06 07:23:10;;;;;;;1999.90;999.90;;;20.80;99.90;;;;;;5051788;28;20048;-77
2022/07/06 07:25:38;;;;;;;1999.90;999.90;;;20.70;99.90;;;;;;5051968;28;20040;-78
2022/07/06 07:28:04;;;;;;;1999.90;999.90;;;20.40;99.90;;;;;;5065027;28;20084;-77
2022/07/06 07:30:30;;;;;;;1999.90;999.90;;;19.70;99.90;;;;;;5068188;28;20110;-77
2022/07/06 07:32:55;;;;;;;1999.90;999.90;;;19.50;99.90;;;;;;5067889;28;20137;-77
2022/07/06 07:35:22;;;;;;;1999.90;999.90;;;19.20;99.90;;;;;;5050976;28;20052;-77
2022/07/06 07:37:47;;;;;;;1999.90;999.90;;;19.40;99.90;;;;;;5060437;28;20036;-76
2022/07/06 07:40:13;;;;;;;1999.90;999.90;;;19.10;99.90;;;;;;5067670;28;20086;-77
2022/07/06 07:42:40;;;;;;;1999.90;999.90;;;18.80;99.90;;;;;;5058816;28;20090;-76
2022/07/06 07:45:07;;;;;;;1999.90;999.90;;;18.40;99.90;;;;;;5043910;28;20036;-76
2022/07/06 07:47:33;;;;;;;1999.90;999.90;;;18.10;99.90;;;;;;5038749;28;20078;-77
2022/07/06 07:49:59;;;;;;;1999.90;999.90;;;18.60;99.90;;;;;;5068384;28;20441;-78
2022/07/06 07:52:25;;;;;;;1999.90;999.90;;;19.00;99.90;;;;;;5067259;28;20032;-76
2022/07/06 07:54:51;;;;;;;1999.90;999.90;;;19.40;99.90;;;;;;5071635;28;20070;-77
2022/07/06 07:57:16;;;;;;;1999.90;999.90;;;19.40;99.90;;;;;;5074374;28;20042;-78
2022/07/06 07:59:42;;;;;;;1999.90;999.90;;;19.50;99.90;;;;;;5055930;28;20044;-77
2022/07/06 08:02:08;;;;;;;1999.90;999.90;;;19.50;99.30;;;;;;5068742;28;20078;-78
2022/07/06 08:04:33;;;;;;;1999.90;999.90;;;19.40;97.30;;;;;;5052159;28;20044;-78
2022/07/06 08:06:59;;;;;;;1999.90;999.90;;;19.60;98.10;;;;;;5066711;28;20093;-77
2022/07/06 08:09:25;;;;;;;1999.90;999.90;;;19.90;96.90;;;;;;5069034;28;20044;-76
2022/07/06 08:11:51;;;;;;;1999.90;999.90;;;20.40;97.60;;;;;;5067497;28;20513;-78
2022/07/06 08:14:17;;;;;;;1999.90;999.90;;;20.80;96.70;;;;;;5049911;28;20043;-77
2022/07/06 08:16:43;;;;;;;1999.90;999.90;;;21.00;95.80;;;;;;5050857;28;20056;-77
2022/07/06 08:19:09;;;;;;;1999.90;999.90;;;21.00;95.00;;;;;;5067182;28;20510;-77
2022/07/06 08:21:35;;;;;;;1999.90;999.90;;;20.70;95.20;;;;;;5084320;28;20060;-77
2022/07/06 08:24:02;;;;;;;1999.90;999.90;;;20.10;95.50;;;;;;5077080;28;20399;-77
2022/07/06 08:26:28;;;;;;;1999.90;999.90;;;19.50;95.40;;;;;;5066492;28;20044;-77
2022/07/06 08:28:54;;;;;;;1999.90;999.90;;;19.00;95.60;;;;;;5076065;28;20052;-77
2022/07/06 08:31:20;;;;;;;1999.90;999.90;;;18.90;96.70;;;;;;5066833;28;20424;-77
2022/07/06 08:33:45;;;;;;;1999.90;999.90;;;19.30;96.10;;;;;;5046386;28;20561;-77
2022/07/06 08:36:11;;;;;;;1999.90;999.90;;;19.80;97.10;;;;;;5065727;28;20036;-78
2022/07/06 08:38:36;;;;;;;1999.90;999.90;;;20.30;96.80;;;;;;5050975;28;20039;-77
2022/07/06 08:41:05;;;;;;;1999.90;999.90;;;20.80;96.90;;;;;;5066790;28;20056;-77
2022/07/06 08:43:32;;;;;;;1999.90;999.90;;;21.20;96.50;;;;;;5037026;28;20040;-78
2022/07/06 08:45:59;;;;;;;1999.90;999.90;;;21.30;95.20;;;;;;5056158;28;20064;-78
2022/07/06 08:48:27;;;;;;;1999.90;999.90;;;21.60;93.80;;;;;;5051631;28;20098;-77
2022/07/06 08:50:54;;;;;;;1999.90;999.90;;;21.30;93.30;;;;;;5059136;28;20502;-75
2022/07/06 08:53:21;;;;;;;1999.90;999.90;;;20.70;93.20;;;;;;5061709;28;20585;-76
2022/07/06 08:55:50;;;;;;;1999.90;999.90;;;19.90;94.00;;;;;;5066555;28;20586;-77
2022/07/06 08:58:15;;;;;;;1999.90;999.90;;;19.30;94.00;;;;;;5050445;28;20123;-77
2022/07/06 09:00:42;;;;;;;1999.90;999.90;;;18.90;95.10;;;;;;5066780;28;20123;-78
2022/07/06 09:03:11;;;;;;;1999.90;999.90;;;18.60;96.30;;;;;;5060125;28;20052;-77
2022/07/06 09:05:39;;;;;;;1999.90;999.90;;;18.60;96.90;;;;;;5062895;28;20041;-77
2022/07/06 09:08:05;;;;;;;1999.90;999.90;;;19.10;97.80;;;;;;5045875;28;20124;-77
2022/07/06 09:10:30;;;;;;;1999.90;999.90;;;19.60;97.50;;;;;;5061111;28;20116;-77
2022/07/06 09:13:07;;;;;;;1999.90;999.90;;;19.90;97.10;;;;;;5067941;28;20517;-77
2022/07/06 09:15:34;;;;;;;1999.90;999.90;;;20.10;95.30;;;;;;5050136;28;20044;-77
2022/07/06 09:17:59;;;;;;;1999.90;999.90;;;19.90;94.70;;;;;;5052540;28;20131;-77
2022/07/06 09:20:26;;;;;;;1999.90;999.90;;;19.60;94.60;;;;;;5066812;28;20120;-75
2022/07/06 09:22:58;;;;;;;1999.90;999.90;;;19.30;94.40;;;;;;5066843;28;20146;-77
2022/07/06 09:25:24;;;;;;;1999.90;999.90;;;19.30;96.40;;;;;;5049701;28;20044;-77
2022/07/06 09:27:54;;;;;;;1999.90;999.90;;;20.00;98.00;;;;;;5071906;28;20045;-77
2022/07/06 09:30:21;;;;;;;1999.90;999.90;;;20.90;96.60;;;;;;5066990;28;20066;-77
2022/07/06 09:32:52;;;;;;;1999.90;999.90;;;21.80;95.10;;;;;;5050050;28;20055;-77
2022/07/06 09:35:24;;;;;;;1999.90;999.90;;;22.30;94.50;;;;;;5066842;28;20398;-78
2022/07/06 09:38:05;;;;;;;1999.90;999.90;;;22.00;91.30;;;;;;5047758;28;20052;-77
2022/07/06 09:40:33;;;;;;;1999.90;999.90;;;21.30;92.10;;;;;;5056932;28;20124;-77
2022/07/06 09:43:22;;;;;;;1999.90;999.90;;;20.80;92.80;;;;;;5041700;28;20160;-76
2022/07/06 09:45:56;;;;;;;1999.90;999.90;;;20.40;92.30;;;;;;5046105;28;20100;-76
2022/07/06 09:48:24;;;;;;;1999.90;999.90;;;20.30;94.40;;;;;;5053154;28;20453;-77
2022/07/06 09:50:55;;;;;;;1999.90;999.90;;;20.60;94.00;;;;;;5070444;28;20034;-76
2022/07/06 09:53:22;;;;;;;1999.90;999.90;;;21.10;93.20;;;;;;5048406;28;20048;-77
2022/07/06 09:55:50;;;;;;;1999.90;999.90;;;21.40;92.30;;;;;;5071389;28;20039;-77
2022/07/06 09:58:16;;;;;;;1999.90;999.90;;;21.20;92.00;;;;;;5053071;28;20055;-77
2022/07/06 10:00:44;;;;;;;1999.90;999.90;;;21.00;91.70;;;;;;5053083;28;20044;-77
2022/07/06 10:03:10;;;;;;;1999.90;999.90;;;20.90;92.10;;;;;;5070245;28;20484;-77
2022/07/06 10:05:41;;;;;;;1999.90;999.90;;;20.90;91.60;;;;;;5069686;28;20051;-77
2022/07/06 10:08:11;;;;;;;1999.90;999.90;;;21.30;92.40;;;;;;5059216;28;20048;-76
2022/07/06 10:10:39;;;;;;;1999.90;999.90;;;21.60;91.30;;;;;;5053538;28;20127;-77
2022/07/06 10:13:06;;;;;;;1999.90;999.90;;;22.00;91.60;;;;;;5053246;28;20036;-77
2022/07/06 10:15:32;;;;;;;1999.90;999.90;;;22.60;91.70;;;;;;5049108;28;20159;-76
2022/07/06 10:18:03;;;;;;;1999.90;999.90;;;23.10;90.20;;;;;;5055433;28;20045;-77
2022/07/06 10:20:36;;;;;;;1999.90;999.90;;;23.40;90.00;;;;;;5068856;28;20149;-77
2022/07/06 10:23:02;;;;;;;;;;;23.00;83.20;;;;;;5087921;28;20075;-77
2022/07/06 10:25:28;;;;;;;1999.90;999.90;;;22.20;81.80;;;;;;5102868;28;19974;-76
2022/07/06 10:27:55;;;;;;;1999.90;999.90;;;21.40;84.30;;;;;;5070178;28;20064;-77
2022/07/06 10:30:21;;;;;;;1999.90;999.90;;;20.90;84.20;;;;;;5067402;28;20052;-77
2022/07/06 10:32:50;;;;;;;1999.90;999.90;;;20.30;86.00;;;;;;5082002;28;20045;-76
2022/07/06 10:35:17;;;;;;;1999.90;999.90;;;20.10;89.60;;;;;;5069554;28;20064;-76
2022/07/06 10:37:43;;;;;;;1999.90;999.90;;;20.50;90.30;;;;;;5064860;28;20090;-76
2022/07/06 10:42:58;;;;;;;1999.90;999.90;;;21.40;87.90;;;;;;5037741;28;20045;-76
2022/07/06 10:45:27;;;;;;;1999.90;999.90;;;21.80;87.20;;;;;;5029430;28;20037;-75
2022/07/06 10:48:17;;;;;;;1999.90;999.90;;;22.40;88.20;;;;;;5089557;28;20037;-77
2022/07/06 10:50:52;;;;;;;1999.90;999.90;;;22.40;83.30;;;;;;5079507;28;20390;-77
2022/07/06 10:53:23;;;;;;;1999.90;999.90;;;21.90;81.80;;;;;;5036071;28;20045;-77
2022/07/06 10:55:52;;;;;;;1999.90;999.90;;;21.50;82.10;;;;;;5032074;28;20040;-76
2022/07/06 10:58:42;;;;;;;1999.90;999.90;;;21.60;84.20;;;;;;5077427;28;20048;-76
2022/07/06 11:01:09;;;;;;;1999.90;999.90;;;21.70;86.00;;;;;;5084100;28;20509;-76
2022/07/06 11:03:46;;;;;;;1999.90;999.90;;;21.60;83.40;;;;;;5074254;28;20064;-76
2022/07/06 11:06:22;;;;;;;1999.90;999.90;;;21.60;84.20;;;;;;5032332;28;20041;-77
2022/07/06 11:08:55;;;;;;;1999.90;999.90;;;21.80;83.20;;;;;;5060791;28;20402;-77
2022/07/06 11:11:36;;;;;;;1999.90;999.90;;;21.90;83.30;;;;;;5094838;28;20071;-77
2022/07/06 11:14:09;;;;;;;1999.90;999.90;;;22.00;83.00;;;;;;5055768;28;20137;-76
2022/07/06 11:17:01;;;;;;;1999.90;999.90;;;22.10;80.70;;;;;;5054428;28;20094;-77
2022/07/06 11:19:27;;;;;;;1999.90;999.90;;;22.20;79.20;;;;;;5073861;28;20131;-75
2022/07/06 11:21:59;;;;;;;1999.90;999.90;;;22.30;78.60;;;;;;5040764;28;20372;-76
2022/07/06 11:24:29;;;;;;;1999.90;999.90;;;22.10;77.00;;;;;;5026976;28;20037;-77
2022/07/06 11:26:56;;;;;;;1999.90;999.90;;;22.10;77.30;;;;;;5043030;28;20059;-76
2022/07/06 11:29:23;;;;;;;1999.90;999.90;;;22.30;79.40;;;;;;5078898;28;20454;-74
2022/07/06 11:31:54;;;;;;;1999.90;999.90;;;22.70;79.30;;;;;;5056632;28;20060;-77
2022/07/06 11:34:22;;;;;;;1999.90;999.90;;;22.90;73.40;;;;;;5061252;28;20044;-77
2022/07/06 11:36:48;;;;;;;1999.90;999.90;;;23.10;77.30;;;;;;5067349;28;20037;-76
2022/07/06 11:39:14;;;;;;;1999.90;999.90;;;23.30;77.60;;;;;;5031691;28;20041;-77
2022/07/06 11:41:41;;;;;;;1999.90;999.90;;;23.40;76.10;;;;;;5077052;28;20060;-75
2022/07/06 11:44:07;;;;;;;1999.90;999.90;;;23.40;73.50;;;;;;5044787;28;20051;-76
2022/07/06 11:46:34;;;;;;;1999.90;999.90;;;23.40;74.80;;;;;;5063742;28;20044;-75
2022/07/06 11:49:06;;;;;;;1999.90;999.90;;;23.60;71.30;;;;;;5047029;28;20047;-76
2022/07/06 11:51:33;;;;;;;1999.90;999.90;;;23.60;72.60;;;;;;5066023;28;20124;-76
2022/07/06 11:54:01;;;;;;;1999.90;999.90;;;23.70;71.70;;;;;;5046413;28;20410;-76
2022/07/06 11:56:28;;;;;;;1999.90;999.90;;;23.40;71.20;;;;;;5064272;28;20119;-76
2022/07/06 11:58:56;;;;;;;1999.90;999.90;;;23.20;72.90;;;;;;5071220;28;20067;-76
2022/07/06 12:01:23;;;;;;;1999.90;999.90;;;23.30;73.10;;;;;;5053780;28;20040;-76
2022/07/06 12:03:49;;;;;;;1999.90;999.90;;;23.30;71.00;;;;;;5064328;28;20135;-76
2022/07/06 12:06:18;;;;;;;1999.90;999.90;;;23.10;69.10;;;;;;5055099;28;20127;-75